createdAt,value
2018-09-22T00:00:07.248Z,14.00
2018-09-22T00:02:36.307Z,14.00
2018-09-22T00:05:05.389Z,14.00
2018-09-22T00:07:34.220Z,14.00
2018-09-22T00:10:03.464Z,14.00
2018-09-22T00:12:33.003Z,14.00
2018-09-22T00:15:02.316Z,14.00
2018-09-22T00:17:31.294Z,14.00
2018-09-22T00:20:00.675Z,14.00
2018-09-22T00:22:30.031Z,13.90
2018-09-22T00:24:59.140Z,13.90
2018-09-22T00:27:28.202Z,13.90
2018-09-22T00:29:57.474Z,13.90
2018-09-22T00:32:26.482Z,13.90
2018-09-22T00:34:55.721Z,13.90
2018-09-22T00:37:24.736Z,13.90
2018-09-22T00:39:54.036Z,13.90
2018-09-22T00:42:23.062Z,13.80
2018-09-22T00:44:52.118Z,13.80
2018-09-22T00:47:21.505Z,13.80
2018-09-22T00:49:50.527Z,13.80
2018-09-22T00:52:19.524Z,13.80
2018-09-22T00:54:48.509Z,13.80
2018-09-22T00:57:17.518Z,13.80
2018-09-22T00:59:46.673Z,13.70
2018-09-22T01:02:16.082Z,13.70
2018-09-22T01:04:45.088Z,13.70
2018-09-22T01:07:14.222Z,13.70
2018-09-22T01:09:43.074Z,13.70
2018-09-22T01:12:12.510Z,13.70
2018-09-22T01:14:41.672Z,13.70
2018-09-22T01:17:10.666Z,13.70
2018-09-22T01:19:39.754Z,13.80
2018-09-22T01:22:08.664Z,13.80
2018-09-22T01:24:37.654Z,13.70
2018-09-22T01:27:06.739Z,13.70
2018-09-22T01:29:35.705Z,13.70
2018-09-22T01:32:04.694Z,13.70
2018-09-22T01:34:34.095Z,13.70
2018-09-22T01:37:02.937Z,13.70
2018-09-22T01:39:32.336Z,13.70
2018-09-22T01:42:01.337Z,13.70
2018-09-22T01:44:30.361Z,13.60
2018-09-22T01:46:59.245Z,13.60
2018-09-22T01:49:28.233Z,13.60
2018-09-22T01:51:57.324Z,13.60
2018-09-22T01:54:26.404Z,13.60
2018-09-22T01:56:55.648Z,13.60
2018-09-22T01:59:24.593Z,13.60
2018-09-22T02:01:53.513Z,13.60
2018-09-22T02:04:22.673Z,13.60
2018-09-22T02:06:52.081Z,13.60
2018-09-22T02:09:21.244Z,13.60
2018-09-22T02:11:50.438Z,13.60
2018-09-22T02:14:19.501Z,13.50
2018-09-22T02:16:48.541Z,13.50
2018-09-22T02:19:17.573Z,13.50
2018-09-22T02:21:46.781Z,13.50
2018-09-22T02:24:16.075Z,13.40
2018-09-22T02:26:45.182Z,13.40
2018-09-22T02:29:14.440Z,13.40
2018-09-22T02:31:43.906Z,13.40
2018-09-22T02:34:13.902Z,13.40
2018-09-22T02:36:42.930Z,13.40
2018-09-22T02:39:12.511Z,13.40
2018-09-22T02:41:41.561Z,13.40
2018-09-22T02:44:10.744Z,13.50
2018-09-22T02:46:39.812Z,13.50
2018-09-22T02:49:08.858Z,13.40
2018-09-22T02:51:38.086Z,13.40
2018-09-22T02:54:07.261Z,13.40
2018-09-22T02:56:36.454Z,13.40
2018-09-22T02:59:07.090Z,13.40
2018-09-22T03:01:36.261Z,13.40
2018-09-22T03:04:05.731Z,13.40
2018-09-22T03:06:34.973Z,13.40
2018-09-22T03:09:04.825Z,13.40
2018-09-22T03:11:33.961Z,13.40
2018-09-22T03:14:03.360Z,13.30
2018-09-22T03:16:32.421Z,13.30
2018-09-22T03:19:01.606Z,13.30
2018-09-22T03:21:30.616Z,13.30
2018-09-22T03:23:59.645Z,13.30
2018-09-22T03:26:28.675Z,13.30
2018-09-22T03:28:57.948Z,13.30
2018-09-22T03:31:26.943Z,13.30
2018-09-22T03:33:56.048Z,13.30
2018-09-22T03:36:25.077Z,13.30
2018-09-22T03:38:54.489Z,13.30
2018-09-22T03:41:23.584Z,13.30
2018-09-22T03:43:53.089Z,13.30
2018-09-22T03:46:21.994Z,13.30
2018-09-22T03:48:51.452Z,13.30
2018-09-22T03:51:20.399Z,13.30
2018-09-22T03:53:49.285Z,13.30
2018-09-22T03:56:18.303Z,13.30
2018-09-22T03:58:47.392Z,13.30
2018-09-22T04:01:16.674Z,13.30
2018-09-22T04:03:45.709Z,13.30
2018-09-22T04:06:14.889Z,13.20
2018-09-22T04:08:43.971Z,13.20
2018-09-22T04:11:12.885Z,13.20
2018-09-22T04:13:42.149Z,13.10
2018-09-22T04:16:11.184Z,13.10
2018-09-22T04:18:40.194Z,13.10
2018-09-22T04:21:09.233Z,13.00
2018-09-22T04:23:38.113Z,13.00
2018-09-22T04:26:07.151Z,13.00
2018-09-22T04:28:36.257Z,13.00
2018-09-22T04:31:05.355Z,13.00
2018-09-22T04:33:34.551Z,12.90
2018-09-22T04:36:04.022Z,12.90
2018-09-22T04:38:33.441Z,12.90
2018-09-22T04:41:02.466Z,12.90
2018-09-22T04:43:31.406Z,13.00
2018-09-22T04:46:00.299Z,13.00
2018-09-22T04:48:29.634Z,13.00
2018-09-22T04:50:58.739Z,13.00
2018-09-22T04:53:27.765Z,13.00
2018-09-22T04:55:57.023Z,13.00
2018-09-22T04:58:26.037Z,13.00
2018-09-22T05:00:55.034Z,13.00
2018-09-22T05:03:24.537Z,13.00
2018-09-22T05:05:53.814Z,13.00
2018-09-22T05:08:23.200Z,13.00
2018-09-22T05:10:52.219Z,13.00
2018-09-22T05:13:21.186Z,13.00
2018-09-22T05:15:50.221Z,13.10
2018-09-22T05:18:19.270Z,13.10
2018-09-22T05:20:48.400Z,13.10
2018-09-22T05:23:17.767Z,13.00
2018-09-22T05:25:46.833Z,13.10
2018-09-22T05:28:16.261Z,13.10
2018-09-22T05:30:45.312Z,13.10
2018-09-22T05:33:14.708Z,13.10
2018-09-22T05:35:43.969Z,13.10
2018-09-22T05:38:12.871Z,13.00
2018-09-22T05:40:42.178Z,13.00
2018-09-22T05:43:11.169Z,12.90
2018-09-22T05:45:40.293Z,12.90
2018-09-22T05:48:09.206Z,12.90
2018-09-22T05:50:38.905Z,12.90
2018-09-22T05:53:08.186Z,12.90
2018-09-22T05:55:37.496Z,12.90
2018-09-22T05:58:07.120Z,12.90
2018-09-22T06:00:38.510Z,12.80
2018-09-22T06:03:08.634Z,12.80
2018-09-22T06:05:38.191Z,12.70
2018-09-22T06:08:07.661Z,12.70
2018-09-22T06:10:36.954Z,12.60
2018-09-22T06:13:06.090Z,12.60
2018-09-22T06:15:35.294Z,12.50
2018-09-22T06:18:04.292Z,12.50
2018-09-22T06:20:33.801Z,12.50
2018-09-22T06:23:02.821Z,12.50
2018-09-22T06:25:32.031Z,12.50
2018-09-22T06:28:01.145Z,12.60
2018-09-22T06:30:30.395Z,12.70
2018-09-22T06:32:59.414Z,12.70
2018-09-22T06:35:28.417Z,12.80
2018-09-22T06:37:57.381Z,12.80
2018-09-22T06:40:26.421Z,12.80
2018-09-22T06:42:55.708Z,12.90
2018-09-22T06:45:25.052Z,13.00
2018-09-22T06:47:54.305Z,13.10
2018-09-22T06:50:23.521Z,13.20
2018-09-22T06:52:52.629Z,13.30
2018-09-22T06:55:22.110Z,13.20
2018-09-22T06:57:51.177Z,13.20
2018-09-22T07:00:20.778Z,13.10
2018-09-22T07:02:49.818Z,13.10
2018-09-22T07:05:18.989Z,13.00
2018-09-22T07:07:48.455Z,13.10
2018-09-22T07:10:18.150Z,13.10
2018-09-22T07:12:47.374Z,13.20
2018-09-22T07:15:17.387Z,13.20
2018-09-22T07:17:46.602Z,13.30
2018-09-22T07:20:15.849Z,13.50
2018-09-22T07:22:50.241Z,13.50
2018-09-22T07:25:19.299Z,13.50
2018-09-22T07:27:48.556Z,13.60
2018-09-22T07:30:18.003Z,13.60
2018-09-22T07:32:47.015Z,13.70
2018-09-22T07:35:16.436Z,13.90
2018-09-22T07:37:45.865Z,14.00
2018-09-22T07:40:15.521Z,14.00
2018-09-22T07:42:44.570Z,14.00
2018-09-22T07:45:14.113Z,14.00
2018-09-22T07:47:43.297Z,14.10
2018-09-22T07:50:12.673Z,14.20
2018-09-22T07:52:43.205Z,14.30
2018-09-22T07:55:12.121Z,14.40
2018-09-22T07:57:41.240Z,14.50
2018-09-22T08:00:10.548Z,14.50
2018-09-22T08:02:40.018Z,14.60
2018-09-22T08:05:09.211Z,14.70
2018-09-22T08:07:38.350Z,14.70
2018-09-22T08:10:07.405Z,14.70
2018-09-22T08:12:36.442Z,14.90
2018-09-22T08:15:05.843Z,15.30
2018-09-22T08:17:34.886Z,16.80
2018-09-22T08:20:04.308Z,20.20
2018-09-22T08:22:34.259Z,20.50
2018-09-22T08:25:05.415Z,22.20
2018-09-22T08:27:34.759Z,22.90
2018-09-22T08:30:04.258Z,25.10
2018-09-22T08:32:33.845Z,24.50
2018-09-22T08:35:03.114Z,25.70
2018-09-22T08:37:32.213Z,27.30
2018-09-22T08:40:02.122Z,29.20
2018-09-22T08:42:31.249Z,31.90
2018-09-22T08:45:00.756Z,33.50
2018-09-22T08:47:29.881Z,32.70
2018-09-22T08:49:59.214Z,33.40
2018-09-22T08:52:28.206Z,34.60
2018-09-22T08:54:57.303Z,36.40
2018-09-22T08:57:26.719Z,36.00
2018-09-22T08:59:56.401Z,37.80
2018-09-22T09:02:25.673Z,35.70
2018-09-22T09:04:54.854Z,34.40
2018-09-22T09:07:24.428Z,34.40
2018-09-22T09:09:53.612Z,34.80
2018-09-22T09:12:22.629Z,33.70
2018-09-22T09:14:51.729Z,31.40
2018-09-22T09:17:20.581Z,29.60
2018-09-22T09:19:49.724Z,28.70
2018-09-22T09:22:19.152Z,26.80
2018-09-22T09:24:48.167Z,25.50
2018-09-22T09:27:17.385Z,26.90
2018-09-22T09:29:47.053Z,25.30
2018-09-22T09:32:17.598Z,27.00
2018-09-22T09:34:47.453Z,26.20
2018-09-22T09:37:16.549Z,27.10
2018-09-22T09:39:45.837Z,30.90
2018-09-22T09:42:14.885Z,33.20
2018-09-22T09:44:44.825Z,35.60
2018-09-22T09:47:14.680Z,34.90
2018-09-22T09:49:44.125Z,33.70
2018-09-22T09:52:13.318Z,32.70
2018-09-22T09:54:42.641Z,34.70
2018-09-22T09:57:11.645Z,35.30
2018-09-22T09:59:41.050Z,34.00
2018-09-22T10:02:11.567Z,36.30
2018-09-22T10:04:40.847Z,37.90
2018-09-22T10:07:10.049Z,36.90
2018-09-22T10:09:39.240Z,36.70
2018-09-22T10:12:08.618Z,36.60
2018-09-22T10:14:37.611Z,35.50
2018-09-22T10:17:06.796Z,33.70
2018-09-22T10:19:36.199Z,34.30
2018-09-22T10:22:05.189Z,31.60
2018-09-22T10:24:34.762Z,33.40
2018-09-22T10:27:04.145Z,34.70
2018-09-22T10:29:33.142Z,36.70
2018-09-22T10:32:02.320Z,37.80
2018-09-22T10:34:32.369Z,36.60
2018-09-22T10:37:01.509Z,35.40
2018-09-22T10:39:30.729Z,34.20
2018-09-22T10:42:00.223Z,32.60
2018-09-22T10:44:29.174Z,30.70
2018-09-22T10:46:58.316Z,28.90
2018-09-22T10:49:27.215Z,27.30
2018-09-22T10:51:56.175Z,25.90
2018-09-22T10:54:25.294Z,24.70
2018-09-22T10:56:54.239Z,24.60
2018-09-22T10:59:23.258Z,24.30
2018-09-22T11:01:52.222Z,26.40
2018-09-22T11:04:21.451Z,27.30
2018-09-22T11:06:50.748Z,28.70
2018-09-22T11:09:19.793Z,29.10
2018-09-22T11:11:48.957Z,29.90
2018-09-22T11:14:18.321Z,29.80
2018-09-22T11:16:48.553Z,29.60
2018-09-22T11:19:18.861Z,30.20
2018-09-22T11:21:47.818Z,30.00
2018-09-22T11:24:17.086Z,29.70
2018-09-22T11:26:46.420Z,29.90
2018-09-22T11:29:15.377Z,30.60
2018-09-22T11:31:44.472Z,31.00
2018-09-22T11:34:13.642Z,31.10
2018-09-22T11:36:44.132Z,31.40
2018-09-22T11:39:13.606Z,31.20
2018-09-22T11:41:42.873Z,31.40
2018-09-22T11:44:12.925Z,31.70
2018-09-22T11:46:42.421Z,31.80
2018-09-22T11:49:11.976Z,31.00
2018-09-22T11:51:41.100Z,30.00
2018-09-22T11:54:10.670Z,29.10
2018-09-22T11:56:39.689Z,28.20
2018-09-22T11:59:09.068Z,27.40
2018-09-22T12:01:38.145Z,26.60
2018-09-22T12:04:07.400Z,25.80
2018-09-22T12:06:36.517Z,25.30
2018-09-22T12:09:16.304Z,24.80
2018-09-22T12:11:45.486Z,24.70
2018-09-22T12:14:14.748Z,24.90
2018-09-22T12:16:43.950Z,24.90
2018-09-22T12:19:13.434Z,24.80
2018-09-22T12:21:42.684Z,24.70
2018-09-22T12:24:14.129Z,24.70
2018-09-22T12:26:43.419Z,24.40
2018-09-22T12:29:13.282Z,24.00
2018-09-22T12:31:42.939Z,23.90
2018-09-22T12:34:12.135Z,23.60
2018-09-22T12:36:41.255Z,23.30
2018-09-22T12:39:11.577Z,23.10
2018-09-22T12:41:40.985Z,23.00
2018-09-22T12:44:10.199Z,23.00
2018-09-22T12:46:39.568Z,23.10
2018-09-22T12:49:08.677Z,23.00
2018-09-22T12:51:38.041Z,22.90
2018-09-22T12:54:07.221Z,22.80
2018-09-22T12:56:36.378Z,22.60
2018-09-22T12:59:05.329Z,22.40
2018-09-22T13:01:34.522Z,22.30
2018-09-22T13:04:03.748Z,22.30
2018-09-22T13:06:32.914Z,22.20
2018-09-22T13:09:02.138Z,22.20
2018-09-22T13:11:31.196Z,22.20
2018-09-22T13:14:00.253Z,22.10
2018-09-22T13:16:29.191Z,22.00
2018-09-22T13:18:58.730Z,21.80
2018-09-22T13:21:27.814Z,21.70
2018-09-22T13:23:57.012Z,21.60
2018-09-22T13:26:26.041Z,21.40
2018-09-22T13:28:55.162Z,21.40
2018-09-22T13:31:24.854Z,21.30
2018-09-22T13:33:54.021Z,21.20
2018-09-22T13:36:23.399Z,21.10
2018-09-22T13:38:52.632Z,21.00
2018-09-22T13:41:22.058Z,20.90
2018-09-22T13:43:51.201Z,20.80
2018-09-22T13:46:20.403Z,20.80
2018-09-22T13:48:49.704Z,20.70
2018-09-22T13:51:18.825Z,20.60
2018-09-22T13:53:47.994Z,20.50
2018-09-22T13:56:17.433Z,20.50
2018-09-22T13:58:46.860Z,20.50
2018-09-22T14:01:18.411Z,20.40
2018-09-22T14:03:47.603Z,20.40
2018-09-22T14:06:16.871Z,20.40
2018-09-22T14:08:47.695Z,20.30
2018-09-22T14:11:18.639Z,20.20
2018-09-22T14:13:48.209Z,20.20
2018-09-22T14:16:17.972Z,20.10
2018-09-22T14:18:48.132Z,20.00
2018-09-22T14:21:17.543Z,20.00
2018-09-22T14:23:47.300Z,20.00
2018-09-22T14:26:17.400Z,19.90
2018-09-22T14:28:47.596Z,19.80
2018-09-22T14:31:16.651Z,19.70
2018-09-22T14:33:46.127Z,19.60
2018-09-22T14:36:15.101Z,19.50
2018-09-22T14:38:45.282Z,19.40
2018-09-22T14:41:15.042Z,19.40
2018-09-22T14:43:45.318Z,19.30
2018-09-22T14:46:14.897Z,19.20
2018-09-22T14:48:45.097Z,19.10
2018-09-22T14:51:14.586Z,19.00
2018-09-22T14:53:43.955Z,18.90
2018-09-22T14:56:13.122Z,18.90
2018-09-22T14:58:42.971Z,18.80
2018-09-22T15:01:12.655Z,18.70
2018-09-22T15:03:41.872Z,18.60
2018-09-22T15:06:11.169Z,18.50
2018-09-22T15:08:40.174Z,18.40
2018-09-22T15:11:09.521Z,18.40
2018-09-22T15:13:38.926Z,18.30
2018-09-22T15:16:08.132Z,18.20
2018-09-22T15:18:37.209Z,18.10
2018-09-22T15:21:07.369Z,18.10
2018-09-22T15:23:37.356Z,18.00
2018-09-22T15:26:06.773Z,18.00
2018-09-22T15:28:37.223Z,17.90
2018-09-22T15:31:06.399Z,17.90
2018-09-22T15:33:36.278Z,17.80
2018-09-22T15:36:05.507Z,17.70
2018-09-22T15:38:35.056Z,17.70
2018-09-22T15:41:04.030Z,17.60
2018-09-22T15:43:33.130Z,17.50
2018-09-22T15:46:02.349Z,17.40
2018-09-22T15:48:31.686Z,17.40
2018-09-22T15:51:00.853Z,17.20
2018-09-22T15:53:29.925Z,17.20
2018-09-22T15:55:59.512Z,17.10
2018-09-22T15:58:29.028Z,17.00
2018-09-22T16:00:58.406Z,16.90
2018-09-22T16:03:27.573Z,16.80
2018-09-22T16:05:56.857Z,16.80
2018-09-22T16:08:26.277Z,16.70
2018-09-22T16:10:55.322Z,16.60
2018-09-22T16:13:24.378Z,16.60
2018-09-22T16:15:53.501Z,16.50
2018-09-22T16:18:22.688Z,16.50
2018-09-22T16:20:51.605Z,16.40
2018-09-22T16:23:20.599Z,16.40
2018-09-22T16:25:49.982Z,16.30
2018-09-22T16:28:18.961Z,16.30
2018-09-22T16:30:48.215Z,16.20
2018-09-22T16:33:17.466Z,16.20
2018-09-22T16:35:46.562Z,16.10
2018-09-22T16:38:15.633Z,16.10
2018-09-22T16:40:45.233Z,16.00
2018-09-22T16:43:14.729Z,15.90
2018-09-22T16:45:43.819Z,15.90
2018-09-22T16:48:14.121Z,15.90
2018-09-22T16:50:43.293Z,15.80
2018-09-22T16:53:12.759Z,15.90
2018-09-22T16:55:42.073Z,15.80
2018-09-22T16:58:11.184Z,15.80
2018-09-22T17:00:40.307Z,15.70
2018-09-22T17:03:09.641Z,15.70
2018-09-22T17:05:38.708Z,15.60
2018-09-22T17:08:07.701Z,15.60
2018-09-22T17:10:36.998Z,15.50
2018-09-22T17:13:06.405Z,15.50
2018-09-22T17:15:35.685Z,15.50
2018-09-22T17:18:07.608Z,15.50
2018-09-22T17:20:37.685Z,15.40
2018-09-22T17:23:07.081Z,15.40
2018-09-22T17:25:36.570Z,15.40
2018-09-22T17:28:06.068Z,15.30
2018-09-22T17:30:35.514Z,15.30
2018-09-22T17:33:04.782Z,15.30
2018-09-22T17:35:33.774Z,15.20
2018-09-22T17:38:02.817Z,15.20
2018-09-22T17:40:32.795Z,15.10
2018-09-22T17:43:01.878Z,15.10
2018-09-22T17:45:30.966Z,15.10
2018-09-22T17:48:00.162Z,15.00
2018-09-22T17:50:29.188Z,15.10
2018-09-22T17:52:59.465Z,15.00
2018-09-22T17:55:28.691Z,15.00
2018-09-22T17:57:57.677Z,15.00
2018-09-22T18:00:26.848Z,14.90
2018-09-22T18:02:56.553Z,14.90
2018-09-22T18:05:25.960Z,14.80
2018-09-22T18:07:55.190Z,14.80
2018-09-22T18:10:25.110Z,14.80
2018-09-22T18:12:54.258Z,14.80
2018-09-22T18:15:23.453Z,14.70
2018-09-22T18:17:52.445Z,14.70
2018-09-22T18:20:21.849Z,14.70
2018-09-22T18:22:51.220Z,14.70
2018-09-22T18:25:20.373Z,14.70
2018-09-22T18:27:49.396Z,14.60
2018-09-22T18:30:18.669Z,14.60
2018-09-22T18:32:47.957Z,14.60
2018-09-22T18:35:17.884Z,14.60
2018-09-22T18:37:47.734Z,14.60
2018-09-22T18:40:16.965Z,14.50
2018-09-22T18:42:46.061Z,14.50
2018-09-22T18:45:15.109Z,14.50
2018-09-22T18:47:44.536Z,14.40
2018-09-22T18:50:14.145Z,14.40
2018-09-22T18:52:43.393Z,14.40
2018-09-22T18:55:12.943Z,14.40
2018-09-22T18:57:42.052Z,14.40
2018-09-22T19:00:11.897Z,14.40
2018-09-22T19:02:41.189Z,14.30
2018-09-22T19:05:10.326Z,14.30
2018-09-22T19:07:39.404Z,14.30
2018-09-22T19:10:08.494Z,14.20
2018-09-22T19:12:37.656Z,14.20
2018-09-22T19:15:13.055Z,14.30
2018-09-22T19:17:48.101Z,14.20
2018-09-22T19:20:24.201Z,14.20
2018-09-22T19:22:56.834Z,14.20
2018-09-22T19:25:28.311Z,14.20
2018-09-22T19:28:09.132Z,14.20
2018-09-22T19:30:44.443Z,14.10
2018-09-22T19:33:16.856Z,14.10
2018-09-22T19:35:51.170Z,14.10
2018-09-22T19:40:31.926Z,14.00
2018-09-22T19:43:20.157Z,14.00
2018-09-22T19:45:51.493Z,14.00
2018-09-22T19:48:39.234Z,14.00
2018-09-22T19:51:10.442Z,13.90
2018-09-22T19:53:41.346Z,13.90
2018-09-22T19:56:10.413Z,13.90
2018-09-22T19:58:39.497Z,13.90
2018-09-22T20:01:09.208Z,13.90
2018-09-22T20:03:38.438Z,13.90
2018-09-22T20:06:07.313Z,13.80
2018-09-22T20:08:36.396Z,13.80
2018-09-22T20:11:05.445Z,13.80
2018-09-22T20:13:34.433Z,13.80
2018-09-22T20:16:03.637Z,13.80
2018-09-22T20:18:32.710Z,13.80
2018-09-22T20:21:01.581Z,13.80
2018-09-22T20:23:30.738Z,13.70
2018-09-22T20:25:59.677Z,13.70
2018-09-22T20:28:28.691Z,13.70
2018-09-22T20:30:57.742Z,13.70
2018-09-22T20:33:26.966Z,13.60
2018-09-22T20:35:56.321Z,13.60
2018-09-22T20:38:25.301Z,13.60
2018-09-22T20:40:54.890Z,13.50
2018-09-22T20:43:23.863Z,13.50
2018-09-22T20:45:52.881Z,13.50
2018-09-22T20:48:21.841Z,13.50
2018-09-22T20:50:51.034Z,13.50
2018-09-22T20:53:20.266Z,13.50
2018-09-22T20:55:49.425Z,13.50
2018-09-22T20:58:18.407Z,13.40
2018-09-22T21:00:47.718Z,13.40
2018-09-22T21:03:16.755Z,13.40
2018-09-22T21:05:45.753Z,13.40
2018-09-22T21:08:15.057Z,13.40
2018-09-22T21:10:44.077Z,13.30
2018-09-22T21:13:13.705Z,13.30
2018-09-22T21:15:43.169Z,13.30
2018-09-22T21:18:12.379Z,13.30
2018-09-22T21:20:41.835Z,13.30
2018-09-22T21:23:10.948Z,13.30
2018-09-22T21:25:40.077Z,13.30
2018-09-22T21:28:09.383Z,13.30
2018-09-22T21:30:38.597Z,13.20
2018-09-22T21:33:08.072Z,13.20
2018-09-22T21:35:37.263Z,13.10
2018-09-22T21:38:06.588Z,13.10
2018-09-22T21:40:35.639Z,13.10
2018-09-22T21:43:05.886Z,13.10
2018-09-22T21:45:34.826Z,13.00
2018-09-22T21:48:03.801Z,13.00
2018-09-22T21:50:33.283Z,13.00
2018-09-22T21:53:03.031Z,13.00
2018-09-22T21:55:32.317Z,13.00
2018-09-22T21:58:01.254Z,12.90
2018-09-22T22:00:30.423Z,12.90
2018-09-22T22:02:59.571Z,12.90
2018-09-22T22:05:28.805Z,12.90
2018-09-22T22:07:58.537Z,12.90
2018-09-22T22:10:27.717Z,12.80
2018-09-22T22:12:57.006Z,12.80
2018-09-22T22:15:26.702Z,12.80
2018-09-22T22:17:55.733Z,12.70
2018-09-22T22:20:25.133Z,12.70
2018-09-22T22:22:54.782Z,12.70
2018-09-22T22:25:24.045Z,12.60
2018-09-22T22:27:53.317Z,12.60
2018-09-22T22:30:22.332Z,12.60
2018-09-22T22:32:51.573Z,12.60
2018-09-22T22:35:20.542Z,12.60
2018-09-22T22:37:49.783Z,12.60
2018-09-22T22:40:18.869Z,12.60
2018-09-22T22:42:48.105Z,12.50
2018-09-22T22:45:17.299Z,12.50
2018-09-22T22:47:46.482Z,12.50
2018-09-22T22:50:15.418Z,12.50
2018-09-22T22:52:44.502Z,12.50
2018-09-22T22:55:13.649Z,12.50
2018-09-22T22:57:42.833Z,12.40
2018-09-22T23:00:12.710Z,12.40
2018-09-22T23:02:41.541Z,12.40
2018-09-22T23:05:10.508Z,12.30
2018-09-22T23:07:39.699Z,12.30
2018-09-22T23:10:08.933Z,12.30
2018-09-22T23:12:38.066Z,12.30
2018-09-22T23:15:07.577Z,12.30
2018-09-22T23:17:36.573Z,12.30
2018-09-22T23:20:05.925Z,12.20
2018-09-22T23:22:35.473Z,12.20
2018-09-22T23:25:04.590Z,12.20
2018-09-22T23:27:33.774Z,12.20
2018-09-22T23:30:02.836Z,12.20
2018-09-22T23:32:31.924Z,12.10
2018-09-22T23:35:01.017Z,12.10
2018-09-22T23:37:30.068Z,12.10
2018-09-22T23:39:58.955Z,12.10
2018-09-22T23:42:28.673Z,12.10
2018-09-22T23:44:58.481Z,12.10
2018-09-22T23:47:27.765Z,12.10
2018-09-22T23:49:57.178Z,12.10
2018-09-22T23:52:26.796Z,12.00
2018-09-22T23:54:55.628Z,12.00
2018-09-22T23:57:24.788Z,12.00
2018-09-22T23:59:53.781Z,12.00
